Time;durP1;ratioP1;P1;durP2;ratioP2;P2;SDS_P1;SDS_P2;PMS_P1;PMS_P2;Temp;Humidity;BMP_temperature;BMP_pressure;BME280_temperature;BME280_humidity;BME280_pressure;Samples;Min_cycle;Max_cycle;Signal;HPM_P1;HPM_P2
2022/12/31 00:00:45;;;;;;;18.45;4.32;;;10.80;99.90;;;;;;5090937;28;20043;-52
2022/12/31 00:03:11;;;;;;;14.93;4.20;;;11.30;99.90;;;;;;5091242;28;20434;-55
2022/12/31 00:05:37;;;;;;;17.90;4.30;;;10.80;99.90;;;;;;5089370;28;20119;-51
2022/12/31 00:08:02;;;;;;;17.77;3.70;;;12.00;99.90;;;;;;5090600;28;20028;-53
2022/12/31 00:10:28;;;;;;;22.88;4.03;;;11.00;99.90;;;;;;5088283;28;20409;-52
2022/12/31 00:12:55;;;;;;;11.68;3.20;;;;;;;;;;5090915;28;20028;-52
2022/12/31 00:15:20;;;;;;;15.40;4.20;;;10.90;99.90;;;;;;5090122;28;20123;-52
2022/12/31 00:17:49;;;;;;;19.17;4.18;;;11.30;99.90;;;;;;5090120;28;20119;-52
2022/12/31 00:20:16;;;;;;;19.00;3.75;;;10.80;99.90;;;;;;5086285;28;20032;-51
2022/12/31 00:22:42;;;;;;;25.17;5.40;;;11.60;99.90;;;;;;5072485;28;20070;-52
2022/12/31 00:25:10;;;;;;;20.77;5.30;;;12.00;99.90;;;;;;5090730;28;20032;-54
2022/12/31 00:27:36;;;;;;;27.27;5.07;;;;;;;;;;5089907;28;20043;-53
2022/12/31 00:30:02;;;;;;;15.18;3.40;;;11.30;99.90;;;;;;5090362;28;20043;-51
2022/12/31 00:32:28;;;;;;;19.73;4.45;;;;;;;;;;5088328;28;20043;-55
2022/12/31 00:35:02;;;;;;;16.27;4.45;;;11.20;99.90;;;;;;5081805;28;20123;-51
2022/12/31 00:37:28;;;;;;;18.73;4.13;;;11.30;99.90;;;;;;5090106;28;20068;-52
2022/12/31 00:39:54;;;;;;;16.38;4.18;;;;;;;;;;5082475;28;20434;-52
2022/12/31 00:42:20;;;;;;;25.67;5.47;;;10.90;99.90;;;;;;5087477;28;20037;-54
2022/12/31 00:44:46;;;;;;;24.52;4.55;;;11.30;99.90;;;;;;5086307;28;20040;-51
2022/12/31 00:47:11;;;;;;;16.42;4.00;;;11.20;99.90;;;;;;5089767;28;20043;-51
2022/12/31 00:49:37;;;;;;;22.42;4.32;;;11.10;99.90;;;;;;5072163;28;20048;-55
2022/12/31 00:52:02;;;;;;;23.67;4.13;;;11.10;99.90;;;;;;5090420;28;20039;-54
2022/12/31 00:54:28;;;;;;;24.20;4.72;;;11.70;99.90;;;;;;5088697;28;20062;-53
2022/12/31 00:56:54;;;;;;;23.00;4.70;;;11.20;99.90;;;;;;5089682;28;20527;-51
2022/12/31 00:59:23;;;;;;;24.90;6.95;;;11.00;99.90;;;;;;5089899;28;20470;-54
2022/12/31 01:01:48;;;;;;;19.52;5.13;;;11.00;99.90;;;;;;5089833;28;20040;-51
2022/12/31 01:04:18;;;;;;;31.60;7.30;;;11.10;99.90;;;;;;5089088;28;20028;-54
2022/12/31 01:06:48;;;;;;;23.45;5.13;;;11.00;99.90;;;;;;5090148;28;20097;-52
2022/12/31 01:09:15;;;;;;;17.05;3.65;;;10.90;99.90;;;;;;5089965;28;20024;-51
2022/12/31 01:11:41;;;;;;;21.10;5.05;;;10.90;99.90;;;;;;5089905;28;20522;-52
2022/12/31 01:14:13;;;;;;;23.13;5.07;;;11.50;99.90;;;;;;5089170;28;20032;-51
2022/12/31 01:16:43;;;;;;;18.75;4.68;;;;;;;;;;5087887;28;20075;-55
2022/12/31 01:19:11;;;;;;;23.55;5.13;;;;;;;;;;5089616;28;20028;-51
2022/12/31 01:21:40;;;;;;;17.38;3.85;;;10.80;99.90;;;;;;5090102;28;20039;-51
2022/12/31 01:24:07;;;;;;;23.20;4.55;;;10.90;99.90;;;;;;5089995;28;20086;-54
2022/12/31 01:26:33;;;;;;;20.80;5.30;;;10.90;99.90;;;;;;5084573;28;20037;-55
2022/12/31 01:28:59;;;;;;;19.83;5.03;;;11.40;99.90;;;;;;5087906;28;20048;-55
2022/12/31 01:31:26;;;;;;;22.42;4.75;;;10.90;99.90;;;;;;5089778;28;20089;-52
2022/12/31 01:33:52;;;;;;;21.75;5.30;;;11.00;99.90;;;;;;5072113;28;20040;-51
2022/12/31 01:36:26;;;;;;;15.50;4.07;;;11.00;99.90;;;;;;5090125;28;20032;-55
2022/12/31 01:38:52;;;;;;;;;;;;;;;;;;5089701;28;20435;-54
2022/12/31 01:41:21;;;;;;;18.23;3.85;;;10.70;99.90;;;;;;5087507;28;20010;-54
2022/12/31 01:43:54;;;;;;;19.65;4.65;;;11.50;99.90;;;;;;5089154;28;20047;-55
2022/12/31 01:46:26;;;;;;;19.33;4.50;;;10.90;99.90;;;;;;5073903;28;20036;-54
2022/12/31 01:48:56;;;;;;;19.73;4.25;;;11.20;99.90;;;;;;5093125;28;20039;-54
2022/12/31 01:51:30;;;;;;;20.63;3.45;;;10.60;99.90;;;;;;5090809;28;20053;-55
2022/12/31 01:53:58;;;;;;;25.45;6.95;;;10.60;99.90;;;;;;5088220;28;20036;-52
2022/12/31 01:56:24;;;;;;;19.05;4.07;;;11.40;99.90;;;;;;5093814;28;20429;-54
2022/12/31 01:58:53;;;;;;;16.23;4.50;;;11.20;99.90;;;;;;5092960;28;20054;-54
2022/12/31 02:01:30;;;;;;;16.95;4.63;;;10.90;99.90;;;;;;5093530;28;20042;-52
2022/12/31 02:03:57;;;;;;;13.32;4.03;;;11.00;99.90;;;;;;5089092;28;20034;-52
2022/12/31 02:06:33;;;;;;;19.92;4.43;;;11.00;99.90;;;;;;5083301;28;20180;-53
2022/12/31 02:08:59;;;;;;;22.38;4.68;;;10.70;99.90;;;;;;5090271;28;20570;-52
2022/12/31 02:11:30;;;;;;;18.88;4.95;;;11.10;99.90;;;;;;5086417;28;20116;-52
2022/12/31 02:13:59;;;;;;;17.42;3.63;;;10.60;99.90;;;;;;5078587;28;20036;-51
2022/12/31 02:16:41;;;;;;;18.98;5.18;;;10.60;99.90;;;;;;5081297;28;20062;-53
2022/12/31 02:19:09;;;;;;;21.73;5.15;;;10.80;99.90;;;;;;5086096;28;20070;-53
2022/12/31 02:21:54;;;;;;;16.20;4.13;;;11.00;99.90;;;;;;5091124;28;20036;-55
2022/12/31 02:24:59;;;;;;;12.32;3.58;;;10.70;99.90;;;;;;5089563;28;20036;-53
2022/12/31 02:27:39;;;;;;;;;;;10.60;99.90;;;;;;5089173;28;20123;-52
2022/12/31 02:30:25;;;;;;;19.95;4.28;;;10.60;99.90;;;;;;5092809;28;19916;-52
2022/12/31 02:33:18;;;;;;;16.48;4.85;;;11.20;99.90;;;;;;5092716;28;20062;-51
2022/12/31 02:35:55;;;;;;;17.98;4.85;;;10.60;99.90;;;;;;5090027;28;20075;-52
2022/12/31 02:38:34;;;;;;;18.75;4.57;;;11.40;99.90;;;;;;5089954;28;20040;-54
2022/12/31 02:41:00;;;;;;;18.92;5.78;;;11.10;99.90;;;;;;5091734;28;20462;-52
2022/12/31 02:43:26;;;;;;;16.20;5.60;;;11.00;99.90;;;;;;5092943;28;20034;-51
2022/12/31 02:46:23;;;;;;;17.40;5.55;;;10.80;99.90;;;;;;5090514;28;20043;-52
2022/12/31 02:49:18;;;;;;;;;;;;;;;;;;;;;
2022/12/31 02:51:55;;;;;;;19.33;5.50;;;10.80;99.90;;;;;;5117642;22;20056;-78
2022/12/31 02:54:39;;;;;;;22.08;6.13;;;10.90;99.90;;;;;;5050331;28;20041;-78
2022/12/31 02:57:37;;;;;;;15.52;5.45;;;10.60;99.90;;;;;;5032068;28;20722;-77
2022/12/31 03:02:59;;;;;;;18.88;5.75;;;11.10;99.90;;;;;;5008640;28;20038;-78
2022/12/31 03:05:29;;;;;;;18.38;6.10;;;11.00;99.90;;;;;;5019252;28;20045;-78
2022/12/31 03:07:55;;;;;;;19.30;6.82;;;10.20;99.90;;;;;;5023466;28;20414;-79
2022/12/31 03:10:21;;;;;;;17.55;5.25;;;10.20;99.90;;;;;;5011753;28;20036;-78
2022/12/31 03:12:47;;;;;;;20.13;5.80;;;11.10;99.90;;;;;;5028390;28;20045;-78
2022/12/31 03:15:22;;;;;;;16.58;4.85;;;11.90;99.90;;;;;;5034026;28;20083;-78
2022/12/31 03:17:50;;;;;;;19.02;4.60;;;11.10;99.90;;;;;;5006074;28;20042;-78
2022/12/31 03:23:04;;;;;;;15.23;4.25;;;10.40;99.90;;;;;;5040914;28;20043;-78
2022/12/31 03:25:37;;;;;;;19.25;5.72;;;11.00;99.90;;;;;;5012017;28;20041;-78
2022/12/31 03:28:13;;;;;;;12.88;5.00;;;10.40;99.90;;;;;;4996836;28;20034;-78
2022/12/31 03:30:40;;;;;;;19.38;4.53;;;10.20;99.90;;;;;;5022507;28;20427;-78
2022/12/31 03:33:07;;;;;;;14.18;5.03;;;10.30;99.90;;;;;;5027161;28;20116;-78
2022/12/31 03:35:35;;;;;;;14.35;3.90;;;10.80;99.90;;;;;;4984291;28;20075;-78
2022/12/31 03:38:02;;;;;;;19.17;4.25;;;10.50;99.90;;;;;;4999605;28;20029;-78
2022/12/31 03:40:29;;;;;;;13.07;4.22;;;10.20;99.90;;;;;;5024861;28;20053;-79
2022/12/31 03:42:55;;;;;;;15.18;3.30;;;11.90;99.90;;;;;;5040529;28;20044;-79
2022/12/31 03:45:21;;;;;;;15.88;3.83;;;10.30;99.90;;;;;;5030792;28;20068;-79
2022/12/31 03:47:47;;;;;;;13.13;3.38;;;10.40;99.90;;;;;;5038615;28;20067;-79
2022/12/31 03:50:15;;;;;;;12.40;3.90;;;10.50;99.90;;;;;;5034235;28;20333;-78
2022/12/31 03:52:41;;;;;;;16.05;4.95;;;10.40;99.90;;;;;;5009648;28;20107;-78
2022/12/31 03:55:08;;;;;;;19.63;3.72;;;10.30;99.90;;;;;;5021455;28;20044;-78
2022/12/31 03:57:34;;;;;;;19.08;4.10;;;10.20;99.90;;;;;;5017752;28;20086;-79
2022/12/31 04:00:01;;;;;;;14.32;4.03;;;11.00;99.90;;;;;;5002210;28;20116;-79
2022/12/31 04:02:26;;;;;;;12.02;4.65;;;10.70;99.90;;;;;;5010130;28;20038;-79
2022/12/31 04:04:52;;;;;;;17.85;4.00;;;10.10;99.90;;;;;;5032878;28;20555;-78
2022/12/31 04:07:18;;;;;;;13.88;4.88;;;10.40;99.90;;;;;;5014362;28;20033;-79
2022/12/31 04:09:43;;;;;;;12.63;3.95;;;10.90;99.90;;;;;;5012254;28;20037;-78
2022/12/31 04:12:09;;;;;;;15.45;4.65;;;10.70;99.90;;;;;;5009668;28;20041;-80
2022/12/31 04:14:34;;;;;;;15.35;4.63;;;10.70;99.90;;;;;;5008668;28;20041;-78
2022/12/31 04:17:00;;;;;;;15.13;4.40;;;10.60;99.90;;;;;;5008839;28;20037;-78
2022/12/31 04:19:26;;;;;;;12.48;3.90;;;10.70;99.90;;;;;;5004210;28;20492;-79
2022/12/31 04:21:51;;;;;;;13.77;3.97;;;10.40;99.90;;;;;;4991220;28;20434;-79
2022/12/31 04:24:17;;;;;;;9.50;2.97;;;10.90;99.90;;;;;;5014967;28;20075;-79
2022/12/31 04:26:43;;;;;;;14.65;3.88;;;10.10;99.90;;;;;;5019730;28;20040;-78
2022/12/31 04:29:10;;;;;;;10.00;2.65;;;10.80;99.90;;;;;;4986969;28;20129;-79
2022/12/31 04:31:35;;;;;;;14.15;3.35;;;10.30;99.90;;;;;;5029969;28;20109;-78
2022/12/31 04:34:01;;;;;;;12.63;3.30;;;10.50;99.90;;;;;;5032302;28;20083;-79
2022/12/31 04:36:26;;;;;;;14.00;3.22;;;10.30;99.90;;;;;;5031448;28;20041;-79
2022/12/31 04:38:52;;;;;;;15.27;3.58;;;;;;;;;;5019863;28;20112;-79
2022/12/31 04:41:19;;;;;;;11.45;2.47;;;10.10;99.90;;;;;;5025813;28;20060;-79
2022/12/31 04:43:55;;;;;;;12.32;3.45;;;10.00;99.90;;;;;;4987774;28;20402;-81
2022/12/31 04:46:26;;;;;;;16.50;3.80;;;10.70;99.90;;;;;;4999266;28;20407;-78
2022/12/31 04:48:52;;;;;;;11.55;3.70;;;10.50;99.90;;;;;;5016460;28;20317;-79
2022/12/31 04:51:19;;;;;;;14.32;3.85;;;9.80;99.90;;;;;;5013823;28;20407;-79
2022/12/31 04:53:45;;;;;;;11.18;3.13;;;10.70;99.90;;;;;;4997693;28;20046;-79
2022/12/31 04:56:11;;;;;;;11.63;3.85;;;10.30;99.90;;;;;;5013817;28;20044;-79
2022/12/31 04:58:38;;;;;;;14.13;3.85;;;9.70;99.90;;;;;;5030190;28;20047;-80
2022/12/31 05:01:04;;;;;;;13.95;4.07;;;10.30;99.90;;;;;;5018095;28;20069;-79
2022/12/31 05:03:30;;;;;;;15.10;4.10;;;10.60;1.00;;;;;;4995736;28;20037;-82
2022/12/31 05:06:19;;;;;;;14.50;4.63;;;9.70;1.00;;;;;;5003234;28;20033;-80
2022/12/31 05:08:46;;;;;;;15.45;5.47;;;10.00;1.00;;;;;;5027724;28;20038;-80
2022/12/31 05:11:12;;;;;;;13.15;4.30;;;10.20;1.00;;;;;;5007020;28;20033;-80
2022/12/31 05:13:38;;;;;;;17.75;4.68;;;10.10;1.00;;;;;;5014332;28;20037;-81
2022/12/31 05:16:04;;;;;;;19.80;4.40;;;;;;;;;;5032257;28;20038;-82
2022/12/31 05:18:31;;;;;;;14.23;4.90;;;9.70;1.00;;;;;;4993446;28;20048;-81
2022/12/31 05:20:57;;;;;;;13.32;4.97;;;9.80;1.00;;;;;;5007475;28;20097;-79
2022/12/31 05:23:23;;;;;;;16.85;5.30;;;9.80;1.00;;;;;;4984645;28;20410;-79
2022/12/31 05:25:49;;;;;;;14.65;5.15;;;10.90;1.00;;;;;;5004193;28;20041;-79
2022/12/31 05:28:15;;;;;;;14.85;4.93;;;10.50;1.00;;;;;;5013432;28;20051;-81
2022/12/31 05:30:42;;;;;;;15.25;5.25;;;10.20;1.00;;;;;;5014089;28;20036;-79
2022/12/31 05:33:08;;;;;;;14.60;5.35;;;9.80;1.00;;;;;;5020987;28;20136;-79
2022/12/31 05:35:34;;;;;;;22.50;6.57;;;9.80;1.00;;;;;;5026888;28;20070;-79
2022/12/31 05:38:00;;;;;;;14.45;6.40;;;9.60;1.00;;;;;;4985026;28;20038;-79
2022/12/31 05:40:27;;;;;;;19.00;6.30;;;9.80;1.00;;;;;;5013590;28;20045;-79
2022/12/31 05:42:52;;;;;;;17.35;5.80;;;9.90;3.50;;;;;;5007875;28;20029;-78
2022/12/31 05:45:18;;;;;;;12.82;4.50;;;10.10;55.30;;;;;;5029730;28;20029;-76
2022/12/31 05:47:44;;;;;;;14.05;4.20;;;9.80;99.90;;;;;;4992479;28;20135;-76
2022/12/31 05:50:11;;;;;;;11.73;3.20;;;;;;;;;;5024298;28;20103;-78
2022/12/31 05:52:37;;;;;;;11.52;3.42;;;9.70;99.90;;;;;;5027232;28;20038;-79
2022/12/31 05:55:03;;;;;;;12.98;3.70;;;10.80;99.90;;;;;;5009941;28;20034;-79
2022/12/31 05:57:29;;;;;;;11.73;4.05;;;9.70;99.90;;;;;;5018589;28;20104;-79
2022/12/31 05:59:55;;;;;;;13.85;4.63;;;9.70;99.90;;;;;;5026482;28;20042;-79
2022/12/31 06:02:21;;;;;;;16.45;5.07;;;10.20;99.90;;;;;;5024234;28;20456;-77
2022/12/31 06:04:46;;;;;;;15.95;6.45;;;9.90;99.90;;;;;;5016321;28;20060;-78
2022/12/31 06:07:12;;;;;;;20.20;7.75;;;9.60;99.90;;;;;;5025685;28;20076;-77
2022/12/31 06:09:38;;;;;;;21.77;8.65;;;10.20;99.90;;;;;;5003129;28;20077;-77
2022/12/31 06:12:04;;;;;;;21.40;9.82;;;10.60;99.90;;;;;;5017960;28;20048;-77
2022/12/31 06:14:30;;;;;;;24.42;12.18;;;10.50;99.90;;;;;;5012025;28;20045;-76
2022/12/31 06:16:56;;;;;;;26.33;11.10;;;10.00;99.90;;;;;;4990316;28;20042;-77
2022/12/31 06:19:21;;;;;;;27.42;11.23;;;10.50;99.90;;;;;;4990383;28;20049;-76
2022/12/31 06:21:47;;;;;;;25.02;11.23;;;10.10;99.90;;;;;;5018142;28;20047;-75
2022/12/31 06:24:13;;;;;;;23.98;12.05;;;;;;;;;;5002141;28;20029;-76
2022/12/31 06:26:39;;;;;;;21.92;10.20;;;;;;;;;;5001016;28;20503;-76
2022/12/31 06:29:05;;;;;;;19.75;8.68;;;10.50;99.90;;;;;;5019034;28;20053;-76
2022/12/31 06:31:31;;;;;;;15.25;8.20;;;9.90;99.90;;;;;;5015650;28;20042;-75
2022/12/31 06:33:56;;;;;;;15.52;7.10;;;10.10;99.90;;;;;;5032456;28;20582;-75
2022/12/31 06:36:22;;;;;;;18.17;7.72;;;9.80;99.90;;;;;;5014555;28;20046;-75
2022/12/31 06:38:48;;;;;;;14.40;6.45;;;9.80;99.90;;;;;;4990574;28;20037;-75
2022/12/31 06:41:15;;;;;;;16.63;7.22;;;10.30;99.90;;;;;;5028492;28;20041;-74
2022/12/31 06:43:42;;;;;;;17.20;8.32;;;9.90;99.90;;;;;;5014690;28;20048;-74
2022/12/31 06:46:13;;;;;;;19.55;7.97;;;10.10;99.90;;;;;;5033286;28;20037;-74
2022/12/31 06:48:41;;;;;;;15.48;8.00;;;10.40;99.90;;;;;;5010260;28;20037;-74
2022/12/31 06:51:20;;;;;;;17.45;8.52;;;9.70;99.90;;;;;;5012720;28;20111;-74
2022/12/31 06:53:47;;;;;;;22.63;9.68;;;9.30;99.90;;;;;;5005172;28;20630;-74
2022/12/31 06:56:17;;;;;;;19.33;9.07;;;9.70;99.90;;;;;;5012426;28;20048;-74
2022/12/31 06:58:43;;;;;;;25.25;9.43;;;9.60;99.90;;;;;;5004938;28;20037;-74
2022/12/31 07:01:33;;;;;;;20.67;10.45;;;10.20;99.90;;;;;;5007442;28;20038;-75
2022/12/31 07:04:14;;;;;;;17.80;9.32;;;9.50;99.90;;;;;;5011776;28;20037;-74
2022/12/31 07:06:47;;;;;;;17.95;8.43;;;9.70;99.90;;;;;;5007018;28;20041;-75
2022/12/31 07:09:20;;;;;;;18.00;9.55;;;9.70;99.90;;;;;;5022307;28;20041;-75
2022/12/31 07:12:19;;;;;;;19.88;9.35;;;9.70;99.90;;;;;;5011744;28;20033;-74
2022/12/31 07:15:01;;;;;;;18.48;9.15;;;9.80;99.90;;;;;;5031442;28;20428;-74
2022/12/31 07:18:09;;;;;;;21.48;10.02;;;9.60;99.90;;;;;;5012769;28;20048;-73
2022/12/31 07:20:35;;;;;;;21.35;10.00;;;9.90;99.90;;;;;;4980248;28;20534;-74
2022/12/31 07:23:01;;;;;;;24.58;11.02;;;9.60;99.90;;;;;;5013329;28;20407;-75
2022/12/31 07:25:26;;;;;;;24.75;11.07;;;10.00;99.90;;;;;;5013423;28;20045;-75
2022/12/31 07:27:55;;;;;;;24.95;12.05;;;9.50;99.90;;;;;;4995139;28;20052;-76
2022/12/31 07:30:35;;;;;;;24.85;11.52;;;9.50;99.90;;;;;;5013864;28;20033;-75
2022/12/31 07:33:19;;;;;;;27.65;13.88;;;9.80;99.90;;;;;;5031955;28;20060;-75
2022/12/31 07:36:10;;;;;;;21.80;11.27;;;9.60;99.90;;;;;;5010441;28;20053;-75
2022/12/31 07:38:42;;;;;;;24.23;12.65;;;9.40;99.90;;;;;;5011869;28;20044;-76
2022/12/31 07:41:39;;;;;;;23.65;11.05;;;10.00;99.90;;;;;;5029180;28;20511;-75
2022/12/31 07:44:35;;;;;;;22.73;10.85;;;10.10;99.90;;;;;;5008981;28;20048;-75
2022/12/31 07:47:03;;;;;;;25.15;10.32;;;9.10;99.90;;;;;;5000751;28;20522;-74
2022/12/31 07:49:30;;;;;;;22.17;10.43;;;9.40;99.90;;;;;;5017512;28;20029;-74
2022/12/31 07:51:56;;;;;;;19.20;9.48;;;9.10;99.90;;;;;;5027188;28;20037;-75
2022/12/31 07:54:22;;;;;;;22.60;10.52;;;9.50;99.90;;;;;;5028453;28;20111;-76
2022/12/31 07:56:49;;;;;;;20.00;10.10;;;9.60;99.90;;;;;;5010485;28;20801;-75
2022/12/31 07:59:42;;;;;;;20.90;9.88;;;9.60;99.90;;;;;;5023826;28;20034;-74
2022/12/31 08:02:38;;;;;;;19.55;10.55;;;9.50;99.90;;;;;;5012866;28;20041;-74
2022/12/31 08:05:25;;;;;;;21.52;10.95;;;9.10;99.90;;;;;;5013778;28;20519;-74
2022/12/31 08:08:12;;;;;;;17.92;9.27;;;9.60;99.90;;;;;;5022485;28;20045;-74
2022/12/31 08:10:52;;;;;;;19.88;10.27;;;10.00;99.90;;;;;;5023845;28;20041;-73
2022/12/31 08:13:17;;;;;;;19.75;10.23;;;9.60;99.90;;;;;;5005894;28;20120;-74
2022/12/31 08:15:43;;;;;;;20.50;9.57;;;;;;;;;;5008591;28;20112;-73
2022/12/31 08:18:09;;;;;;;17.35;9.10;;;9.70;99.90;;;;;;5024783;28;20496;-73
2022/12/31 08:20:57;;;;;;;16.55;9.57;;;10.10;99.90;;;;;;5008427;28;20041;-73
2022/12/31 08:24:09;;;;;;;16.45;8.98;;;9.80;99.90;;;;;;5020389;28;20108;-73
2022/12/31 08:27:03;;;;;;;18.73;9.07;;;9.70;99.90;;;;;;4969462;28;20045;-73
2022/12/31 08:29:38;;;;;;;18.00;9.30;;;10.60;99.90;;;;;;5025042;28;20037;-73
2022/12/31 08:32:21;;;;;;;21.98;9.43;;;10.10;99.90;;;;;;5012776;28;20098;-74
2022/12/31 08:34:52;;;;;;;22.27;10.80;;;9.70;99.90;;;;;;5030814;28;20038;-73
2022/12/31 08:37:32;;;;;;;21.95;10.70;;;10.30;99.90;;;;;;5008550;28;20045;-74
2022/12/31 08:40:30;;;;;;;23.02;10.55;;;10.70;99.90;;;;;;5008702;28;20375;-73
2022/12/31 08:43:23;;;;;;;24.83;11.05;;;10.20;99.90;;;;;;4994092;28;20057;-73
2022/12/31 08:45:51;;;;;;;17.77;10.60;;;10.30;99.90;;;;;;5005061;28;20029;-73
2022/12/31 08:48:37;;;;;;;21.77;10.57;;;10.80;99.90;;;;;;5007908;28;20511;-73
2022/12/31 08:51:03;;;;;;;18.92;10.10;;;10.40;99.90;;;;;;5001309;28;20037;-74
2022/12/31 08:53:29;;;;;;;21.42;11.18;;;10.80;99.90;;;;;;5023342;28;20045;-73
2022/12/31 08:56:12;;;;;;;17.42;10.57;;;11.30;99.90;;;;;;5023946;28;20034;-73
2022/12/31 08:58:56;;;;;;;19.80;10.85;;;10.50;99.90;;;;;;5012921;28;20120;-73
2022/12/31 09:01:26;;;;;;;18.27;10.30;;;10.70;99.90;;;;;;5009236;28;20049;-73
2022/12/31 09:04:13;;;;;;;15.95;10.20;;;11.20;99.90;;;;;;5030467;28;20275;-73
2022/12/31 09:06:49;;;;;;;20.35;10.68;;;11.40;99.90;;;;;;5012006;28;20046;-74
2022/12/31 09:09:26;;;;;;;14.40;7.47;;;11.40;99.90;;;;;;5026563;28;20045;-73
2022/12/31 09:12:14;;;;;;;15.73;8.63;;;11.70;99.90;;;;;;5021981;28;20037;-73
2022/12/31 09:14:56;;;;;;;15.15;7.60;;;11.50;99.90;;;;;;5012408;28;20041;-73
2022/12/31 09:17:36;;;;;;;18.25;7.45;;;11.20;99.90;;;;;;5011732;28;20121;-73
2022/12/31 09:20:03;;;;;;;14.85;6.40;;;11.30;99.90;;;;;;5025301;28;20101;-74
2022/12/31 09:22:29;;;;;;;13.30;6.25;;;11.10;99.90;;;;;;5006800;28;20076;-74
2022/12/31 09:24:55;;;;;;;17.02;6.50;;;11.70;99.90;;;;;;4996116;28;20041;-73
2022/12/31 09:27:34;;;;;;;14.55;5.40;;;11.40;99.90;;;;;;5008712;28;20103;-74
2022/12/31 09:30:04;;;;;;;16.02;6.05;;;11.80;99.90;;;;;;5009246;28;20064;-73
2022/12/31 09:32:48;;;;;;;13.75;5.03;;;11.50;99.90;;;;;;5029832;28;20065;-73
2022/12/31 09:35:51;;;;;;;10.40;3.90;;;11.50;99.90;;;;;;5012556;28;20037;-73
2022/12/31 09:38:44;;;;;;;15.10;4.13;;;11.60;99.90;;;;;;5010833;28;20120;-73
2022/12/31 09:41:47;;;;;;;12.60;4.38;;;11.30;99.90;;;;;;4996117;28;20059;-73
2022/12/31 09:44:30;;;;;;;13.88;2.92;;;11.80;99.90;;;;;;5011150;28;20046;-72
2022/12/31 09:47:17;;;;;;;12.18;3.33;;;12.00;99.90;;;;;;5026329;28;20072;-73
2022/12/31 09:49:58;;;;;;;10.20;3.03;;;11.60;99.90;;;;;;5022307;28;20087;-73
2022/12/31 09:53:02;;;;;;;11.50;3.03;;;11.80;99.90;;;;;;5009880;28;20037;-72
2022/12/31 09:55:53;;;;;;;20.85;4.82;;;11.90;99.90;;;;;;5003836;28;20527;-73
2022/12/31 09:58:36;;;;;;;8.00;2.53;;;11.60;99.90;;;;;;5026776;28;20033;-72
2022/12/31 10:01:24;;;;;;;9.02;2.67;;;12.40;99.90;;;;;;5023847;28;20044;-73
2022/12/31 10:04:13;;;;;;;11.65;2.67;;;11.30;99.90;;;;;;5012883;28;20643;-73
2022/12/31 10:06:57;;;;;;;12.18;2.42;;;;;;;;;;5006829;28;20065;-73
2022/12/31 10:09:23;;;;;;;;;;;11.70;99.90;;;;;;5031006;28;20033;-74
2022/12/31 10:12:22;;;;;;;12.23;3.45;;;11.60;99.90;;;;;;5031004;28;21731;-73
2022/12/31 10:15:06;;;;;;;13.05;2.63;;;;;;;;;;5028819;28;20092;-74
2022/12/31 10:17:35;;;;;;;13.17;3.67;;;11.90;99.90;;;;;;5010190;28;20044;-74
2022/12/31 10:20:15;;;;;;;12.80;3.20;;;12.30;99.90;;;;;;5037205;28;20042;-74
2022/12/31 10:22:50;;;;;;;14.55;4.10;;;12.10;99.90;;;;;;5026064;28;20033;-75
2022/12/31 10:25:27;;;;;;;8.90;2.42;;;12.30;99.90;;;;;;5028029;28;20356;-76
2022/12/31 10:28:10;;;;;;;13.63;3.92;;;12.40;99.90;;;;;;5024114;28;20033;-76
2022/12/31 10:30:40;;;;;;;17.23;4.10;;;;;;;;;;5020826;28;20049;-75
2022/12/31 10:33:17;;;;;;;13.15;3.55;;;11.90;99.90;;;;;;5015730;28;20078;-76
2022/12/31 10:36:07;;;;;;;13.70;4.22;;;12.10;99.90;;;;;;5014999;28;20229;-76
2022/12/31 10:39:01;;;;;;;15.75;3.88;;;12.00;99.90;;;;;;5013333;28;20419;-76
2022/12/31 10:41:30;;;;;;;19.10;3.97;;;;;;;;;;5015645;28;20042;-76
2022/12/31 10:44:08;;;;;;;21.33;4.40;;;11.90;99.90;;;;;;5006833;28;20091;-76
2022/12/31 10:46:53;;;;;;;12.77;3.67;;;;;;;;;;5018529;28;20044;-77
2022/12/31 10:49:49;;;;;;;18.65;4.13;;;12.40;99.90;;;;;;5030775;28;20061;-76
2022/12/31 10:52:32;;;;;;;16.30;3.88;;;12.10;99.90;;;;;;5014098;28;20403;-76
2022/12/31 10:55:32;;;;;;;14.93;4.07;;;12.50;99.90;;;;;;5020804;28;20487;-76
2022/12/31 10:58:30;;;;;;;17.58;4.80;;;11.90;99.90;;;;;;5000963;28;20458;-77
2022/12/31 11:01:09;;;;;;;14.68;4.20;;;12.50;99.90;;;;;;5009817;28;20110;-76
2022/12/31 11:03:51;;;;;;;12.02;3.17;;;12.50;99.90;;;;;;5033003;28;20048;-76
2022/12/31 11:06:37;;;;;;;22.98;4.38;;;12.30;99.90;;;;;;5010885;28;20038;-76
2022/12/31 11:09:23;;;;;;;17.60;4.15;;;12.00;99.90;;;;;;5008168;28;20099;-77
2022/12/31 11:11:48;;;;;;;14.15;4.38;;;12.70;99.90;;;;;;5012023;28;20451;-76
2022/12/31 11:14:15;;;;;;;12.75;3.35;;;12.20;99.90;;;;;;5020606;28;20038;-76
2022/12/31 11:17:06;;;;;;;15.52;4.75;;;12.50;99.90;;;;;;5022024;28;20174;-76
2022/12/31 11:19:41;;;;;;;17.92;4.05;;;12.00;99.90;;;;;;5025915;28;20045;-76
2022/12/31 11:22:12;;;;;;;14.73;3.80;;;12.10;99.90;;;;;;5003913;28;20038;-76
2022/12/31 11:25:12;;;;;;;12.70;4.00;;;12.00;99.90;;;;;;5021925;28;20100;-76
2022/12/31 11:28:03;;;;;;;17.73;3.80;;;12.00;99.90;;;;;;5004823;28;20554;-76
2022/12/31 11:30:39;;;;;;;18.48;4.00;;;12.60;99.90;;;;;;5032687;28;20052;-75
2022/12/31 11:33:27;;;;;;;20.10;3.83;;;12.70;99.90;;;;;;5010147;28;20091;-76
2022/12/31 11:36:11;;;;;;;12.35;2.65;;;12.40;99.90;;;;;;5029066;28;20048;-75
2022/12/31 11:38:50;;;;;;;16.30;3.00;;;12.50;99.90;;;;;;5009358;28;20056;-76
2022/12/31 11:41:22;;;;;;;14.13;3.63;;;12.10;99.90;;;;;;5013123;28;20092;-76
2022/12/31 11:44:26;;;;;;;15.63;3.85;;;12.40;99.90;;;;;;4992417;28;20069;-76
2022/12/31 11:46:52;;;;;;;16.55;4.05;;;12.10;99.90;;;;;;4990512;28;20034;-77
2022/12/31 11:49:39;;;;;;;12.93;4.05;;;12.50;99.90;;;;;;5009506;28;20407;-77
2022/12/31 11:52:38;;;;;;;16.20;3.90;;;12.90;99.90;;;;;;5009086;28;20151;-77
2022/12/31 11:55:42;;;;;;;14.73;3.95;;;13.00;99.90;;;;;;5008720;28;20495;-77
2022/12/31 11:58:13;;;;;;;17.05;4.55;;;12.70;99.90;;;;;;5026012;28;20033;-77
2022/12/31 12:00:48;;;;;;;15.93;3.50;;;12.50;99.90;;;;;;5005453;28;20557;-77
2022/12/31 12:03:14;;;;;;;15.95;3.78;;;12.80;99.90;;;;;;5003361;28;20038;-78
2022/12/31 12:05:40;;;;;;;14.10;4.03;;;12.80;99.90;;;;;;5012127;28;20040;-77
2022/12/31 12:08:06;;;;;;;20.88;6.47;;;12.70;99.90;;;;;;5013166;28;20065;-77
2022/12/31 12:10:51;;;;;;;14.25;4.70;;;12.70;99.90;;;;;;5008350;28;20072;-77
2022/12/31 12:13:20;;;;;;;17.38;4.43;;;12.60;99.90;;;;;;5027052;28;20037;-77
2022/12/31 12:15:53;;;;;;;15.02;4.93;;;12.60;99.90;;;;;;5010433;28;20152;-78
2022/12/31 12:18:41;;;;;;;16.95;4.47;;;12.10;99.90;;;;;;5008999;28;20033;-77
2022/12/31 12:21:19;;;;;;;16.83;4.72;;;12.80;99.90;;;;;;5013554;28;20029;-78
2022/12/31 12:24:04;;;;;;;16.40;4.03;;;12.50;99.90;;;;;;5021799;28;20453;-78
2022/12/31 12:26:36;;;;;;;19.52;5.80;;;12.60;99.90;;;;;;5033386;28;20037;-78
2022/12/31 12:29:11;;;;;;;18.13;5.55;;;12.30;99.90;;;;;;5027847;28;20099;-78
2022/12/31 12:31:37;;;;;;;22.17;6.28;;;12.70;99.90;;;;;;5021914;28;20041;-79
2022/12/31 12:34:04;;;;;;;17.42;4.60;;;12.70;99.90;;;;;;5021992;28;20044;-78
2022/12/31 12:36:30;;;;;;;16.58;4.85;;;13.10;99.90;;;;;;5014767;28;20522;-79
2022/12/31 12:39:01;;;;;;;17.70;5.80;;;12.50;99.90;;;;;;5014902;28;20109;-78
2022/12/31 12:41:26;;;;;;;20.25;5.60;;;12.70;99.90;;;;;;5022592;28;20115;-79
2022/12/31 12:44:07;;;;;;;20.92;4.28;;;12.40;99.90;;;;;;4998310;28;20033;-78
2022/12/31 12:46:42;;;;;;;24.48;4.60;;;12.40;99.90;;;;;;5028745;28;20139;-78
2022/12/31 12:49:50;;;;;;;15.82;4.82;;;12.30;99.90;;;;;;4983735;28;20042;-77
2022/12/31 12:52:37;;;;;;;24.48;5.30;;;12.30;99.90;;;;;;4985082;28;20126;-77
2022/12/31 12:55:10;;;;;;;25.70;5.32;;;12.30;99.90;;;;;;5006637;28;20080;-77
2022/12/31 12:58:03;;;;;;;17.63;4.63;;;12.60;99.90;;;;;;5012612;28;20146;-77
2022/12/31 13:01:01;;;;;;;14.05;3.88;;;12.20;99.90;;;;;;5013364;28;20108;-77
2022/12/31 13:03:56;;;;;;;25.63;4.85;;;12.30;99.90;;;;;;5005810;28;20095;-77
2022/12/31 13:06:41;;;;;;;14.38;4.50;;;12.40;99.90;;;;;;5011343;28;20037;-77
2022/12/31 13:09:47;;;;;;;13.82;3.55;;;12.00;99.90;;;;;;5025154;28;20042;-76
2022/12/31 13:12:21;;;;;;;18.25;4.25;;;12.00;99.90;;;;;;4976508;28;20491;-77
2022/12/31 13:14:57;;;;;;;21.17;4.23;;;12.30;99.90;;;;;;5009201;28;20048;-76
2022/12/31 13:17:41;;;;;;;17.63;4.65;;;12.20;99.90;;;;;;5009154;28;20041;-76
2022/12/31 13:20:48;;;;;;;16.25;3.92;;;12.30;99.90;;;;;;5028915;28;20030;-76
2022/12/31 13:24:02;;;;;;;21.23;4.53;;;12.40;99.90;;;;;;4965167;28;20543;-76
2022/12/31 13:26:55;;;;;;;17.33;5.00;;;12.30;99.90;;;;;;4917312;28;20059;-77
2022/12/31 13:29:25;;;;;;;18.00;4.70;;;12.00;99.90;;;;;;4993978;28;20128;-78